sensor_id;sensor_type;location;lat;lon;timestamp;pressure;altitude;pressure_sealevel;temperature;humidity
45327;BME280;31062;49.678;24.560;2023-05-10T00:01:25;98948.59;;;6.43;62.12
45327;BME280;31062;49.678;24.560;2023-05-10T00:04:11;98792.91;;;5.37;62.24
45327;BME280;31062;49.678;24.560;2023-05-10T00:06:56;98767.19;;;5.21;61.51
45327;BME280;31062;49.678;24.560;2023-05-10T00:09:42;98742.84;;;4.99;61.36
45327;BME280;31062;49.678;24.560;2023-05-10T00:12:27;98941.47;;;6.35;61.26
45327;BME280;31062;49.678;24.560;2023-05-10T00:15:13;98790.69;;;5.36;61.22
45327;BME280;31062;49.678;24.560;2023-05-10T00:17:58;98941.06;;;6.31;61.57
45327;BME280;31062;49.678;24.560;2023-05-10T00:20:43;98755.50;;;4.89;62.10
45327;BME280;31062;49.678;24.560;2023-05-10T00:23:31;98863.19;;;5.64;62.00
45327;BME280;31062;49.678;24.560;2023-05-10T00:26:16;98745.13;;;4.82;62.07
45327;BME280;31062;49.678;24.560;2023-05-10T00:29:07;98780.72;;;5.06;62.28
45327;BME280;31062;49.678;24.560;2023-05-10T00:31:53;98745.28;;;4.71;62.14
45327;BME280;31062;49.678;24.560;2023-05-10T00:34:38;98933.22;;;5.95;62.81
45327;BME280;31062;49.678;24.560;2023-05-10T00:37:24;98824.50;;;5.17;62.74
45327;BME280;31062;49.678;24.560;2023-05-10T00:40:10;98737.03;;;4.58;62.46
45327;BME280;31062;49.678;24.560;2023-05-10T00:42:56;98838.75;;;5.16;62.15
45327;BME280;31062;49.678;24.560;2023-05-10T00:45:42;98929.16;;;5.96;62.33
45327;BME280;31062;49.678;24.560;2023-05-10T00:48:29;98906.69;;;5.66;62.08
45327;BME280;31062;49.678;24.560;2023-05-10T00:51:16;98933.41;;;5.97;62.17
45327;BME280;31062;49.678;24.560;2023-05-10T00:54:02;98932.34;;;5.87;61.94
45327;BME280;31062;49.678;24.560;2023-05-10T00:56:48;98764.47;;;4.76;61.99
45327;BME280;31062;49.678;24.560;2023-05-10T00:59:34;98733.63;;;4.51;62.41
45327;BME280;31062;49.678;24.560;2023-05-10T01:02:20;98737.50;;;4.43;62.94
45327;BME280;31062;49.678;24.560;2023-05-10T01:05:05;98930.78;;;5.60;63.35
45327;BME280;31062;49.678;24.560;2023-05-10T01:07:51;98833.47;;;4.86;63.40
45327;BME280;31062;49.678;24.560;2023-05-10T01:10:37;98928.72;;;5.47;63.04
45327;BME280;31062;49.678;24.560;2023-05-10T01:13:30;98948.97;;;5.31;62.92
45327;BME280;31062;49.678;24.560;2023-05-10T01:16:17;98925.44;;;5.17;63.10
45327;BME280;31062;49.678;24.560;2023-05-10T01:19:05;98920.69;;;5.17;63.50
45327;BME280;31062;49.678;24.560;2023-05-10T01:22:10;98926.84;;;5.23;63.22
45327;BME280;31062;49.678;24.560;2023-05-10T01:31:22;98929.63;;;5.37;62.54
45327;BME280;31062;49.678;24.560;2023-05-10T01:34:16;98881.09;;;5.07;62.23
45327;BME280;31062;49.678;24.560;2023-05-10T01:37:10;98883.03;;;5.12;62.20
45327;BME280;31062;49.678;24.560;2023-05-10T01:40:07;98720.09;;;4.03;61.88
45327;BME280;31062;49.678;24.560;2023-05-10T01:42:57;98778.16;;;4.44;61.21
45327;BME280;31062;49.678;24.560;2023-05-10T01:48:52;98925.38;;;5.22;61.91
45327;BME280;31062;49.678;24.560;2023-05-10T01:51:45;98720.44;;;3.94;61.82
45327;BME280;31062;49.678;24.560;2023-05-10T01:54:33;98645.16;;;3.39;61.75
45327;BME280;31062;49.678;24.560;2023-05-10T01:57:20;98913.47;;;5.14;61.90
45327;BME280;31062;49.678;24.560;2023-05-10T02:00:08;98743.59;;;3.98;61.94
45327;BME280;31062;49.678;24.560;2023-05-10T02:03:06;98870.75;;;4.81;61.91
45327;BME280;31062;49.678;24.560;2023-05-10T02:05:56;98758.78;;;3.99;61.79
45327;BME280;31062;49.678;24.560;2023-05-10T02:08:43;98714.25;;;3.75;62.08
45327;BME280;31062;49.678;24.560;2023-05-10T02:11:31;98861.09;;;4.75;62.20
45327;BME280;31062;49.678;24.560;2023-05-10T02:14:18;98811.41;;;4.22;62.09
45327;BME280;31062;49.678;24.560;2023-05-10T02:17:05;98908.47;;;5.00;62.14
45327;BME280;31062;49.678;24.560;2023-05-10T02:19:53;98940.69;;;4.99;62.24
45327;BME280;31062;49.678;24.560;2023-05-10T02:22:40;98708.44;;;3.59;62.36
45327;BME280;31062;49.678;24.560;2023-05-10T02:25:27;98920.31;;;4.89;62.33
45327;BME280;31062;49.678;24.560;2023-05-10T02:28:14;98764.66;;;4.09;62.31
45327;BME280;31062;49.678;24.560;2023-05-10T02:31:00;98895.53;;;4.94;62.51
45327;BME280;31062;49.678;24.560;2023-05-10T02:33:46;98899.25;;;4.97;62.45
45327;BME280;31062;49.678;24.560;2023-05-10T02:36:36;98868.53;;;4.80;62.24
45327;BME280;31062;49.678;24.560;2023-05-10T02:39:23;98807.25;;;4.34;62.07
45327;BME280;31062;49.678;24.560;2023-05-10T02:42:15;98890.78;;;4.95;62.15
45327;BME280;31062;49.678;24.560;2023-05-10T02:45:07;98703.38;;;3.63;61.94
45327;BME280;31062;49.678;24.560;2023-05-10T02:47:53;98867.63;;;4.72;62.32
45327;BME280;31062;49.678;24.560;2023-05-10T02:50:42;98865.69;;;4.67;62.49
45327;BME280;31062;49.678;24.560;2023-05-10T02:53:31;98902.81;;;4.92;62.67
45327;BME280;31062;49.678;24.560;2023-05-10T02:56:31;98904.75;;;4.97;62.57
45327;BME280;31062;49.678;24.560;2023-05-10T02:59:18;98866.13;;;4.71;62.32
45327;BME280;31062;49.678;24.560;2023-05-10T03:02:04;98714.97;;;3.56;62.28
45327;BME280;31062;49.678;24.560;2023-05-10T03:04:49;98708.72;;;3.56;61.93
45327;BME280;31062;49.678;24.560;2023-05-10T03:07:35;98699.22;;;3.38;61.91
45327;BME280;31062;49.678;24.560;2023-05-10T03:10:26;98869.19;;;4.48;62.35
45327;BME280;31062;49.678;24.560;2023-05-10T03:16:10;98811.97;;;4.15;62.87
45327;BME280;31062;49.678;24.560;2023-05-10T03:21:51;98681.84;;;3.30;63.19
45327;BME280;31062;49.678;24.560;2023-05-10T03:24:41;98890.66;;;4.69;62.75
45327;BME280;31062;49.678;24.560;2023-05-10T03:27:28;98681.28;;;3.37;62.87
45327;BME280;31062;49.678;24.560;2023-05-10T03:30:15;98888.56;;;4.75;63.11
45327;BME280;31062;49.678;24.560;2023-05-10T03:33:05;98769.97;;;3.83;63.15
45327;BME280;31062;49.678;24.560;2023-05-10T03:35:57;98899.72;;;4.64;63.62
45327;BME280;31062;49.678;24.560;2023-05-10T03:38:44;98895.03;;;4.59;64.20
45327;BME280;31062;49.678;24.560;2023-05-10T03:41:30;98896.88;;;4.50;63.80
45327;BME280;31062;49.678;24.560;2023-05-10T03:44:16;98879.06;;;4.38;64.14
45327;BME280;31062;49.678;24.560;2023-05-10T03:47:02;98887.97;;;4.44;64.31
45327;BME280;31062;49.678;24.560;2023-05-10T03:49:48;98847.88;;;4.17;64.49
45327;BME280;31062;49.678;24.560;2023-05-10T03:52:33;98883.97;;;4.45;64.86
45327;BME280;31062;49.678;24.560;2023-05-10T03:55:19;98847.41;;;4.13;64.83
45327;BME280;31062;49.678;24.560;2023-05-10T03:58:04;98678.13;;;3.09;64.98
45327;BME280;31062;49.678;24.560;2023-05-10T04:00:51;98909.56;;;4.53;65.87
45327;BME280;31062;49.678;24.560;2023-05-10T04:03:37;98858.28;;;4.43;65.93
45327;BME280;31062;49.678;24.560;2023-05-10T04:06:23;98886.19;;;4.66;66.03
45327;BME280;31062;49.678;24.560;2023-05-10T04:09:08;98885.97;;;4.64;66.69
45327;BME280;31062;49.678;24.560;2023-05-10T04:11:54;98823.41;;;4.19;66.85
45327;BME280;31062;49.678;24.560;2023-05-10T04:14:39;98687.50;;;3.38;66.86
45327;BME280;31062;49.678;24.560;2023-05-10T04:17:25;98889.00;;;4.79;67.23
45327;BME280;31062;49.678;24.560;2023-05-10T04:20:12;98818.66;;;4.38;66.50
45327;BME280;31062;49.678;24.560;2023-05-10T04:22:58;98865.13;;;4.74;66.17
45327;BME280;31062;49.678;24.560;2023-05-10T04:25:43;98848.94;;;4.70;66.22
45327;BME280;31062;49.678;24.560;2023-05-10T04:28:29;98841.38;;;4.76;66.36
45327;BME280;31062;49.678;24.560;2023-05-10T04:31:14;98844.47;;;4.86;66.32
45327;BME280;31062;49.678;24.560;2023-05-10T04:33:59;98686.28;;;3.95;66.30
45327;BME280;31062;49.678;24.560;2023-05-10T04:36:45;98891.13;;;5.37;66.06
45327;BME280;31062;49.678;24.560;2023-05-10T04:39:30;98688.28;;;4.13;66.02
45327;BME280;31062;49.678;24.560;2023-05-10T04:42:16;98700.47;;;4.31;66.26
45327;BME280;31062;49.678;24.560;2023-05-10T04:45:01;98867.09;;;5.69;66.55
45327;BME280;31062;49.678;24.560;2023-05-10T04:47:47;98880.59;;;5.99;66.99
45327;BME280;31062;49.678;24.560;2023-05-10T04:50:33;98896.25;;;6.30;65.76
45327;BME280;31062;49.678;24.560;2023-05-10T04:53:18;98832.09;;;6.22;65.10
45327;BME280;31062;49.678;24.560;2023-05-10T04:56:05;98881.34;;;7.07;63.96
45327;BME280;31062;49.678;24.560;2023-05-10T04:58:50;98686.50;;;6.19;63.69
45327;BME280;31062;49.678;24.560;2023-05-10T05:01:36;98757.88;;;7.13;61.76
45327;BME280;31062;49.678;24.560;2023-05-10T05:04:21;98685.41;;;7.05;60.66
45327;BME280;31062;49.678;24.560;2023-05-10T05:07:08;98768.50;;;7.94;59.62
45327;BME280;31062;49.678;24.560;2023-05-10T05:09:53;98881.13;;;9.18;58.60
45327;BME280;31062;49.678;24.560;2023-05-10T05:12:39;98845.00;;;9.39;57.61
45327;BME280;31062;49.678;24.560;2023-05-10T05:15:24;98882.59;;;10.03;55.45
45327;BME280;31062;49.678;24.560;2023-05-10T05:18:10;98824.28;;;10.01;54.59
45327;BME280;31062;49.678;24.560;2023-05-10T05:20:56;98692.56;;;9.60;53.29
45327;BME280;31062;49.678;24.560;2023-05-10T05:23:41;98822.47;;;10.83;51.76
45327;BME280;31062;49.678;24.560;2023-05-10T05:26:26;98700.06;;;10.30;49.48
45327;BME280;31062;49.678;24.560;2023-05-10T05:29:13;98817.06;;;11.18;48.96
45327;BME280;31062;49.678;24.560;2023-05-10T05:31:58;98724.38;;;10.96;48.11
45327;BME280;31062;49.678;24.560;2023-05-10T05:34:47;98718.28;;;11.15;46.58
45327;BME280;31062;49.678;24.560;2023-05-10T05:37:32;98865.47;;;12.33;46.35
45327;BME280;31062;49.678;24.560;2023-05-10T05:40:18;98710.34;;;11.36;47.40
45327;BME280;31062;49.678;24.560;2023-05-10T05:43:03;98893.25;;;12.67;47.48
45327;BME280;31062;49.678;24.560;2023-05-10T05:45:49;98880.91;;;12.88;47.31
45327;BME280;31062;49.678;24.560;2023-05-10T05:48:34;98874.72;;;13.06;46.31
45327;BME280;31062;49.678;24.560;2023-05-10T05:51:20;98824.44;;;12.95;45.15
45327;BME280;31062;49.678;24.560;2023-05-10T05:54:05;98865.22;;;13.36;43.97
45327;BME280;31062;49.678;24.560;2023-05-10T05:56:54;98707.09;;;12.52;42.50
45327;BME280;31062;49.678;24.560;2023-05-10T05:59:40;98704.94;;;12.60;40.84
45327;BME280;31062;49.678;24.560;2023-05-10T06:02:28;98679.50;;;12.37;38.75
45327;BME280;31062;49.678;24.560;2023-05-10T06:05:15;98861.66;;;13.63;38.11
45327;BME280;31062;49.678;24.560;2023-05-10T06:08:01;98826.63;;;13.23;38.36
45327;BME280;31062;49.678;24.560;2023-05-10T06:10:47;98851.38;;;13.56;37.95
45327;BME280;31062;49.678;24.560;2023-05-10T06:13:32;98695.91;;;12.43;37.60
45327;BME280;31062;49.678;24.560;2023-05-10T06:16:18;98703.53;;;12.42;37.36
45327;BME280;31062;49.678;24.560;2023-05-10T06:19:03;98856.47;;;13.49;36.94
45327;BME280;31062;49.678;24.560;2023-05-10T06:21:49;98727.03;;;12.58;37.19
45327;BME280;31062;49.678;24.560;2023-05-10T06:24:38;98860.31;;;13.54;37.07
45327;BME280;31062;49.678;24.560;2023-05-10T06:27:23;98715.91;;;12.58;37.10
45327;BME280;31062;49.678;24.560;2023-05-10T06:30:10;98850.91;;;13.49;37.16
45327;BME280;31062;49.678;24.560;2023-05-10T06:32:58;98688.00;;;12.39;37.62
45327;BME280;31062;49.678;24.560;2023-05-10T06:35:43;98642.50;;;12.08;36.81
45327;BME280;31062;49.678;24.560;2023-05-10T06:38:29;98804.56;;;13.08;37.80
45327;BME280;31062;49.678;24.560;2023-05-10T06:41:14;98820.13;;;13.47;37.81
45327;BME280;31062;49.678;24.560;2023-05-10T06:44:00;98826.75;;;13.62;37.85
45327;BME280;31062;49.678;24.560;2023-05-10T06:46:45;98855.69;;;13.85;36.01
45327;BME280;31062;49.678;24.560;2023-05-10T06:49:31;98749.56;;;13.16;37.13
45327;BME280;31062;49.678;24.560;2023-05-10T06:52:17;98871.69;;;13.85;36.97
45327;BME280;31062;49.678;24.560;2023-05-10T06:55:03;98879.34;;;13.94;37.46
45327;BME280;31062;49.678;24.560;2023-05-10T06:57:49;98861.31;;;14.05;35.98
45327;BME280;31062;49.678;24.560;2023-05-10T07:00:35;98846.75;;;14.06;35.93
45327;BME280;31062;49.678;24.560;2023-05-10T07:03:25;98708.97;;;13.23;35.68
45327;BME280;31062;49.678;24.560;2023-05-10T07:06:12;98860.59;;;14.23;35.04
45327;BME280;31062;49.678;24.560;2023-05-10T07:09:17;98699.44;;;13.16;35.11
45327;BME280;31062;49.678;24.560;2023-05-10T07:12:03;98685.03;;;13.10;34.99
45327;BME280;31062;49.678;24.560;2023-05-10T07:14:49;98843.25;;;14.15;34.29
45327;BME280;31062;49.678;24.560;2023-05-10T07:17:34;98833.13;;;14.01;34.44
45327;BME280;31062;49.678;24.560;2023-05-10T07:20:21;98846.66;;;14.23;34.44
45327;BME280;31062;49.678;24.560;2023-05-10T07:23:06;98866.44;;;14.27;34.37
45327;BME280;31062;49.678;24.560;2023-05-10T07:25:52;98686.19;;;13.07;33.38
45327;BME280;31062;49.678;24.560;2023-05-10T07:28:37;98755.19;;;13.55;33.32
45327;BME280;31062;49.678;24.560;2023-05-10T07:31:23;98823.16;;;14.07;33.90
45327;BME280;31062;49.678;24.560;2023-05-10T07:34:08;98819.03;;;14.08;32.89
45327;BME280;31062;49.678;24.560;2023-05-10T07:36:54;98824.47;;;14.06;32.67
45327;BME280;31062;49.678;24.560;2023-05-10T07:39:39;98869.09;;;14.25;31.01
45327;BME280;31062;49.678;24.560;2023-05-10T07:42:25;98852.34;;;14.25;32.98
45327;BME280;31062;49.678;24.560;2023-05-10T07:45:10;98695.94;;;13.25;32.83
45327;BME280;31062;49.678;24.560;2023-05-10T07:47:56;98847.69;;;14.38;31.71
45327;BME280;31062;49.678;24.560;2023-05-10T07:50:42;98858.97;;;14.49;31.84
45327;BME280;31062;49.678;24.560;2023-05-10T07:53:27;98846.53;;;14.41;31.14
45327;BME280;31062;49.678;24.560;2023-05-10T07:56:24;98677.34;;;13.37;31.61
45327;BME280;31062;49.678;24.560;2023-05-10T07:59:18;98838.00;;;14.58;30.17
45327;BME280;31062;49.678;24.560;2023-05-10T08:02:03;98866.31;;;14.83;30.31
45327;BME280;31062;49.678;24.560;2023-05-10T08:04:49;98708.13;;;13.78;30.54
45327;BME280;31062;49.678;24.560;2023-05-10T08:07:34;98839.72;;;14.73;30.81
45327;BME280;31062;49.678;24.560;2023-05-10T08:10:20;98790.56;;;14.48;30.69
45327;BME280;31062;49.678;24.560;2023-05-10T08:13:06;98856.13;;;14.97;30.50
45327;BME280;31062;49.678;24.560;2023-05-10T08:15:51;98835.44;;;14.81;30.55
45327;BME280;31062;49.678;24.560;2023-05-10T08:18:39;98779.56;;;14.50;30.03
45327;BME280;31062;49.678;24.560;2023-05-10T08:21:25;98786.16;;;14.45;29.81
45327;BME280;31062;49.678;24.560;2023-05-10T08:24:11;98704.75;;;13.89;30.75
45327;BME280;31062;49.678;24.560;2023-05-10T08:26:56;98845.56;;;14.86;29.74
45327;BME280;31062;49.678;24.560;2023-05-10T08:29:42;98875.53;;;14.95;29.39
45327;BME280;31062;49.678;24.560;2023-05-10T08:32:35;98820.38;;;14.46;29.18
45327;BME280;31062;49.678;24.560;2023-05-10T08:35:20;98718.56;;;13.87;29.41
45327;BME280;31062;49.678;24.560;2023-05-10T08:38:06;98850.28;;;14.74;28.79
45327;BME280;31062;49.678;24.560;2023-05-10T08:40:54;98863.78;;;14.87;28.56
45327;BME280;31062;49.678;24.560;2023-05-10T08:43:42;98797.59;;;14.49;28.97
45327;BME280;31062;49.678;24.560;2023-05-10T08:46:33;98863.03;;;14.96;28.92
45327;BME280;31062;49.678;24.560;2023-05-10T08:49:21;98852.16;;;15.00;29.93
45327;BME280;31062;49.678;24.560;2023-05-10T08:52:07;98856.69;;;15.05;29.99
45327;BME280;31062;49.678;24.560;2023-05-10T08:54:53;98865.66;;;15.04;28.51
45327;BME280;31062;49.678;24.560;2023-05-10T08:57:39;98859.75;;;15.09;29.22
45327;BME280;31062;49.678;24.560;2023-05-10T09:00:25;98839.19;;;15.05;29.12
45327;BME280;31062;49.678;24.560;2023-05-10T09:03:11;98868.66;;;15.37;28.52
45327;BME280;31062;49.678;24.560;2023-05-10T09:05:58;98723.44;;;14.56;28.55
45327;BME280;31062;49.678;24.560;2023-05-10T09:08:44;98838.03;;;15.39;27.99
45327;BME280;31062;49.678;24.560;2023-05-10T09:11:31;98854.63;;;15.46;27.85
45327;BME280;31062;49.678;24.560;2023-05-10T09:14:18;98696.19;;;14.25;28.59
45327;BME280;31062;49.678;24.560;2023-05-10T09:17:04;98847.94;;;15.30;28.65
45327;BME280;31062;49.678;24.560;2023-05-10T09:19:50;98851.31;;;15.29;27.70
45327;BME280;31062;49.678;24.560;2023-05-10T09:22:42;98812.13;;;15.07;27.60
45327;BME280;31062;49.678;24.560;2023-05-10T09:25:27;98847.72;;;15.38;28.57
45327;BME280;31062;49.678;24.560;2023-05-10T09:28:12;98840.97;;;15.41;27.93
45327;BME280;31062;49.678;24.560;2023-05-10T09:30:58;98820.75;;;15.31;29.16
45327;BME280;31062;49.678;24.560;2023-05-10T09:33:48;98832.13;;;15.54;28.49
45327;BME280;31062;49.678;24.560;2023-05-10T09:36:34;98771.06;;;15.20;27.58
45327;BME280;31062;49.678;24.560;2023-05-10T09:39:19;98836.59;;;15.69;27.29
45327;BME280;31062;49.678;24.560;2023-05-10T09:42:07;98758.19;;;15.15;26.98
45327;BME280;31062;49.678;24.560;2023-05-10T09:44:53;98844.78;;;15.55;26.89
45327;BME280;31062;49.678;24.560;2023-05-10T09:47:39;98801.19;;;15.31;27.24
45327;BME280;31062;49.678;24.560;2023-05-10T09:50:25;98796.44;;;15.33;27.88
45327;BME280;31062;49.678;24.560;2023-05-10T09:53:14;98695.22;;;14.71;26.82
45327;BME280;31062;49.678;24.560;2023-05-10T09:56:00;98652.56;;;14.49;27.33
45327;BME280;31062;49.678;24.560;2023-05-10T09:58:46;98827.47;;;15.68;28.00
45327;BME280;31062;49.678;24.560;2023-05-10T10:01:50;98691.03;;;14.82;27.25
45327;BME280;31062;49.678;24.560;2023-05-10T10:04:39;98743.44;;;15.24;27.79
45327;BME280;31062;49.678;24.560;2023-05-10T10:07:27;98785.22;;;15.52;27.57
45327;BME280;31062;49.678;24.560;2023-05-10T10:10:12;98664.53;;;14.61;27.79
45327;BME280;31062;49.678;24.560;2023-05-10T10:12:59;98812.75;;;15.68;27.15
45327;BME280;31062;49.678;24.560;2023-05-10T10:15:45;98720.31;;;15.02;27.36
45327;BME280;31062;49.678;24.560;2023-05-10T10:18:32;98634.72;;;14.64;27.61
45327;BME280;31062;49.678;24.560;2023-05-10T10:21:18;98746.00;;;15.41;27.62
45327;BME280;31062;49.678;24.560;2023-05-10T10:24:04;98771.72;;;15.70;28.48
45327;BME280;31062;49.678;24.560;2023-05-10T10:36:16;98638.91;;;15.05;26.45
45327;BME280;31062;49.678;24.560;2023-05-10T10:39:09;98795.78;;;16.18;27.71
45327;BME280;31062;49.678;24.560;2023-05-10T10:41:57;98801.50;;;16.20;27.37
45327;BME280;31062;49.678;24.560;2023-05-10T10:44:42;98675.63;;;15.54;26.72
45327;BME280;31062;49.678;24.560;2023-05-10T10:47:30;98641.09;;;15.28;26.89
45327;BME280;31062;49.678;24.560;2023-05-10T10:50:18;98689.03;;;15.46;27.08
45327;BME280;31062;49.678;24.560;2023-05-10T10:53:10;98624.28;;;14.95;26.97
45327;BME280;31062;49.678;24.560;2023-05-10T10:56:12;98726.69;;;15.45;27.84
45327;BME280;31062;49.678;24.560;2023-05-10T10:59:00;98784.09;;;15.88;27.06
45327;BME280;31062;49.678;24.560;2023-05-10T11:01:51;98762.91;;;15.85;27.20
45327;BME280;31062;49.678;24.560;2023-05-10T11:04:41;98627.84;;;14.86;27.62
45327;BME280;31062;49.678;24.560;2023-05-10T11:07:28;98613.41;;;14.90;27.30
45327;BME280;31062;49.678;24.560;2023-05-10T11:10:19;98773.03;;;15.90;27.48
45327;BME280;31062;49.678;24.560;2023-05-10T11:13:07;98613.50;;;14.80;28.07
45327;BME280;31062;49.678;24.560;2023-05-10T11:15:53;98782.88;;;15.91;27.67
45327;BME280;31062;49.678;24.560;2023-05-10T11:18:39;98602.06;;;14.76;27.29
45327;BME280;31062;49.678;24.560;2023-05-10T11:21:25;98764.25;;;15.84;27.66
45327;BME280;31062;49.678;24.560;2023-05-10T11:24:19;98614.41;;;14.73;27.07
45327;BME280;31062;49.678;24.560;2023-05-10T11:27:05;98778.88;;;15.73;27.07
45327;BME280;31062;49.678;24.560;2023-05-10T11:29:51;98765.38;;;15.70;26.64
45327;BME280;31062;49.678;24.560;2023-05-10T11:32:39;98752.00;;;15.68;26.54
45327;BME280;31062;49.678;24.560;2023-05-10T11:35:27;98765.91;;;15.78;26.67
45327;BME280;31062;49.678;24.560;2023-05-10T11:38:13;98607.19;;;14.80;27.88
45327;BME280;31062;49.678;24.560;2023-05-10T11:40:59;98699.38;;;15.65;28.20
45327;BME280;31062;49.678;24.560;2023-05-10T11:43:50;98730.03;;;15.96;28.05
45327;BME280;31062;49.678;24.560;2023-05-10T11:46:36;98670.09;;;15.66;27.50
45327;BME280;31062;49.678;24.560;2023-05-10T11:49:22;98744.81;;;15.86;27.21
45327;BME280;31062;49.678;24.560;2023-05-10T11:52:10;98707.69;;;15.53;27.11
45327;BME280;31062;49.678;24.560;2023-05-10T11:54:57;98763.63;;;15.86;28.69
45327;BME280;31062;49.678;24.560;2023-05-10T11:57:42;98718.59;;;15.70;27.98
45327;BME280;31062;49.678;24.560;2023-05-10T12:00:31;98530.28;;;14.46;26.50
45327;BME280;31062;49.678;24.560;2023-05-10T12:03:17;98742.41;;;15.92;27.50
45327;BME280;31062;49.678;24.560;2023-05-10T12:06:03;98759.84;;;15.81;27.35
45327;BME280;31062;49.678;24.560;2023-05-10T12:08:49;98672.41;;;15.48;27.83
45327;BME280;31062;49.678;24.560;2023-05-10T12:11:40;98591.16;;;14.80;27.48
45327;BME280;31062;49.678;24.560;2023-05-10T12:14:28;98742.50;;;15.83;27.33
45327;BME280;31062;49.678;24.560;2023-05-10T12:17:18;98712.47;;;15.62;27.74
45327;BME280;31062;49.678;24.560;2023-05-10T12:20:17;98772.25;;;15.78;27.50
45327;BME280;31062;49.678;24.560;2023-05-10T12:23:04;98708.84;;;15.50;27.70
45327;BME280;31062;49.678;24.560;2023-05-10T12:25:50;98697.56;;;15.48;27.97
45327;BME280;31062;49.678;24.560;2023-05-10T12:28:37;98691.28;;;15.38;28.33
45327;BME280;31062;49.678;24.560;2023-05-10T12:31:24;98705.06;;;15.55;27.97
45327;BME280;31062;49.678;24.560;2023-05-10T12:34:10;98604.47;;;14.91;28.21
45327;BME280;31062;49.678;24.560;2023-05-10T12:36:55;98673.69;;;15.35;28.07
45327;BME280;31062;49.678;24.560;2023-05-10T12:39:42;98580.00;;;14.80;28.14
45327;BME280;31062;49.678;24.560;2023-05-10T12:42:28;98605.50;;;15.07;28.56
45327;BME280;31062;49.678;24.560;2023-05-10T12:45:17;98733.63;;;15.86;27.88
45327;BME280;31062;49.678;24.560;2023-05-10T12:48:04;98673.75;;;15.68;27.14
45327;BME280;31062;49.678;24.560;2023-05-10T12:51:00;98720.31;;;15.97;26.92
45327;BME280;31062;49.678;24.560;2023-05-10T12:53:47;98701.34;;;15.95;26.64
45327;BME280;31062;49.678;24.560;2023-05-10T12:56:34;98646.22;;;15.53;26.07
45327;BME280;31062;49.678;24.560;2023-05-10T12:59:21;98713.50;;;16.00;26.38
45327;BME280;31062;49.678;24.560;2023-05-10T13:02:08;98600.53;;;15.27;26.81
45327;BME280;31062;49.678;24.560;2023-05-10T13:04:57;98720.81;;;16.05;26.62
45327;BME280;31062;49.678;24.560;2023-05-10T13:07:42;98705.63;;;16.08;27.27
45327;BME280;31062;49.678;24.560;2023-05-10T13:10:30;98718.00;;;16.05;27.44
45327;BME280;31062;49.678;24.560;2023-05-10T13:13:16;98702.94;;;16.10;28.11
45327;BME280;31062;49.678;24.560;2023-05-10T13:16:01;98545.22;;;15.14;26.94
45327;BME280;31062;49.678;24.560;2023-05-10T13:18:47;98693.59;;;16.17;27.08
45327;BME280;31062;49.678;24.560;2023-05-10T13:21:32;98561.38;;;15.16;26.68
45327;BME280;31062;49.678;24.560;2023-05-10T13:24:17;98631.19;;;15.58;26.38
45327;BME280;31062;49.678;24.560;2023-05-10T13:27:02;98687.69;;;15.89;27.29
45327;BME280;31062;49.678;24.560;2023-05-10T13:29:48;98530.25;;;14.77;26.95
45327;BME280;31062;49.678;24.560;2023-05-10T13:32:34;98694.22;;;15.82;27.12
45327;BME280;31062;49.678;24.560;2023-05-10T13:35:19;98613.78;;;15.05;27.74
45327;BME280;31062;49.678;24.560;2023-05-10T13:38:05;98689.72;;;15.77;27.89
45327;BME280;31062;49.678;24.560;2023-05-10T13:40:53;98636.09;;;15.48;27.10
45327;BME280;31062;49.678;24.560;2023-05-10T13:43:39;98626.00;;;15.43;27.17
45327;BME280;31062;49.678;24.560;2023-05-10T13:46:25;98621.34;;;15.36;26.85
45327;BME280;31062;49.678;24.560;2023-05-10T13:49:10;98672.13;;;15.86;26.42
45327;BME280;31062;49.678;24.560;2023-05-10T13:51:56;98534.53;;;15.10;26.21
45327;BME280;31062;49.678;24.560;2023-05-10T13:54:42;98651.47;;;15.91;26.04
45327;BME280;31062;49.678;24.560;2023-05-10T13:57:27;98532.84;;;15.17;26.72
45327;BME280;31062;49.678;24.560;2023-05-10T14:00:15;98499.06;;;15.01;26.81
45327;BME280;31062;49.678;24.560;2023-05-10T14:03:02;98601.34;;;15.72;26.35
45327;BME280;31062;49.678;24.560;2023-05-10T14:05:47;98656.28;;;16.24;26.71
45327;BME280;31062;49.678;24.560;2023-05-10T14:08:34;98618.81;;;16.06;26.14
45327;BME280;31062;49.678;24.560;2023-05-10T14:11:20;98640.84;;;16.23;26.18
45327;BME280;31062;49.678;24.560;2023-05-10T14:14:09;98641.34;;;16.31;26.63
45327;BME280;31062;49.678;24.560;2023-05-10T14:16:55;98589.50;;;15.95;27.25
45327;BME280;31062;49.678;24.560;2023-05-10T14:19:40;98665.19;;;16.32;27.61
45327;BME280;31062;49.678;24.560;2023-05-10T14:22:25;98652.53;;;16.31;27.38
45327;BME280;31062;49.678;24.560;2023-05-10T14:25:11;98485.47;;;15.07;27.21
45327;BME280;31062;49.678;24.560;2023-05-10T14:27:57;98672.91;;;16.10;27.54
45327;BME280;31062;49.678;24.560;2023-05-10T14:30:43;98657.44;;;15.98;27.51
45327;BME280;31062;49.678;24.560;2023-05-10T14:33:28;98645.38;;;15.83;27.04
45327;BME280;31062;49.678;24.560;2023-05-10T14:36:14;98655.63;;;15.90;27.38
45327;BME280;31062;49.678;24.560;2023-05-10T14:38:59;98632.41;;;15.55;27.39
45327;BME280;31062;49.678;24.560;2023-05-10T14:41:45;98653.63;;;15.81;28.02
45327;BME280;31062;49.678;24.560;2023-05-10T14:44:31;98487.25;;;14.70;27.92
45327;BME280;31062;49.678;24.560;2023-05-10T14:47:16;98514.94;;;14.78;27.47
45327;BME280;31062;49.678;24.560;2023-05-10T14:50:02;98641.03;;;15.59;28.05
45327;BME280;31062;49.678;24.560;2023-05-10T14:52:47;98505.41;;;14.59;27.49
45327;BME280;31062;49.678;24.560;2023-05-10T14:55:33;98497.22;;;14.52;26.62
45327;BME280;31062;49.678;24.560;2023-05-10T14:58:19;98657.66;;;15.57;27.53
45327;BME280;31062;49.678;24.560;2023-05-10T15:01:05;98497.06;;;14.50;27.01